createdAt,value
2019-01-02T00:00:28.000Z,23.78
2019-01-02T00:10:27.000Z,23.74
2019-01-02T00:20:27.000Z,23.67
2019-01-02T00:30:27.000Z,23.63
2019-01-02T00:40:27.000Z,23.6
2019-01-02T00:50:27.000Z,23.59
2019-01-02T01:00:27.000Z,23.52
2019-01-02T01:10:27.000Z,23.51
2019-01-02T01:20:27.000Z,23.49
2019-01-02T01:30:27.000Z,23.42
2019-01-02T01:40:27.000Z,23.38
2019-01-02T01:50:27.000Z,23.34
2019-01-02T02:00:27.000Z,23.3
2019-01-02T02:10:28.000Z,23.27
2019-01-02T02:20:28.000Z,23.2
2019-01-02T02:30:28.000Z,23.18
2019-01-02T02:40:28.000Z,23.07
2019-01-02T02:50:28.000Z,22.99
2019-01-02T03:00:28.000Z,22.98
2019-01-02T03:10:28.000Z,23.01
2019-01-02T03:20:28.000Z,22.88
2019-01-02T03:30:28.000Z,22.9
2019-01-02T03:40:28.000Z,22.81
2019-01-02T03:50:28.000Z,22.76
2019-01-02T04:00:28.000Z,22.81
2019-01-02T04:10:28.000Z,22.75
2019-01-02T04:20:28.000Z,22.71
2019-01-02T04:30:28.000Z,22.65
2019-01-02T04:40:28.000Z,22.64
2019-01-02T04:50:28.000Z,22.66
2019-01-02T05:00:28.000Z,22.69
2019-01-02T05:10:28.000Z,22.68
2019-01-02T05:20:28.000Z,22.73
2019-01-02T05:30:28.000Z,22.81
2019-01-02T05:40:28.000Z,22.81
2019-01-02T05:50:28.000Z,22.87
2019-01-02T06:00:28.000Z,22.97
2019-01-02T06:10:28.000Z,22.97
2019-01-02T06:20:28.000Z,22.99
2019-01-02T06:30:28.000Z,23.06
2019-01-02T06:40:28.000Z,23.1
2019-01-02T06:50:28.000Z,23.09
2019-01-02T07:00:28.000Z,23.15
2019-01-02T07:10:28.000Z,23.16
2019-01-02T07:20:28.000Z,23.28
2019-01-02T07:30:28.000Z,23.24
2019-01-02T07:40:28.000Z,23.24
2019-01-02T07:50:28.000Z,23.25
2019-01-02T08:00:28.000Z,23.37
2019-01-02T08:10:28.000Z,23.37
2019-01-02T08:20:28.000Z,23.32
2019-01-02T08:30:28.000Z,23.38
2019-01-02T08:40:28.000Z,23.43
2019-01-02T08:50:28.000Z,23.43
2019-01-02T09:00:28.000Z,23.55
2019-01-02T09:10:28.000Z,23.62
2019-01-02T09:20:28.000Z,23.78
2019-01-02T09:30:28.000Z,23.97
2019-01-02T09:40:28.000Z,24.02
2019-01-02T09:50:29.000Z,24.1
2019-01-02T10:00:28.000Z,24.19
2019-01-02T10:10:28.000Z,24.43
2019-01-02T10:20:29.000Z,24.63
2019-01-02T10:30:29.000Z,24.84
2019-01-02T10:40:30.000Z,24.91
2019-01-02T10:50:29.000Z,25.03
2019-01-02T11:00:29.000Z,25.15
2019-01-02T11:10:30.000Z,25.12
2019-01-02T11:20:29.000Z,25.16
2019-01-02T11:30:29.000Z,25.29
2019-01-02T11:40:29.000Z,25.34
2019-01-02T11:50:29.000Z,25.3
2019-01-02T12:00:30.000Z,25.37
2019-01-02T12:10:29.000Z,25.35
2019-01-02T12:20:29.000Z,25.25
2019-01-02T12:30:29.000Z,25.04
2019-01-02T12:40:29.000Z,24.95
2019-01-02T12:50:29.000Z,24.86
2019-01-02T13:00:29.000Z,24.84
2019-01-02T13:10:29.000Z,24.81
2019-01-02T13:20:29.000Z,24.91
2019-01-02T13:30:29.000Z,25
2019-01-02T13:40:29.000Z,24.99
2019-01-02T13:50:29.000Z,24.92
2019-01-02T14:00:29.000Z,24.95
2019-01-02T14:10:29.000Z,24.92
2019-01-02T14:20:32.000Z,24.82
2019-01-02T14:30:30.000Z,24.76
2019-01-02T14:40:32.000Z,24.72
2019-01-02T14:50:29.000Z,24.71
2019-01-02T15:00:29.000Z,24.63
2019-01-02T15:10:29.000Z,24.64
2019-01-02T15:20:29.000Z,24.72
2019-01-02T15:30:29.000Z,24.65
2019-01-02T15:40:29.000Z,24.65
2019-01-02T15:50:29.000Z,24.77
2019-01-02T16:00:29.000Z,24.83
2019-01-02T16:10:29.000Z,24.89
2019-01-02T16:20:29.000Z,24.89
2019-01-02T16:30:29.000Z,25.08
2019-01-02T16:40:29.000Z,25.1
2019-01-02T16:50:32.000Z,24.97
2019-01-02T17:00:30.000Z,24.81
2019-01-02T17:10:29.000Z,24.83
2019-01-02T17:20:29.000Z,24.79
2019-01-02T17:30:30.000Z,24.78
2019-01-02T17:40:29.000Z,24.77
2019-01-02T17:50:29.000Z,24.67
2019-01-02T18:10:29.000Z,24.39
2019-01-02T18:20:29.000Z,24.5
2019-01-02T18:30:30.000Z,24.45
2019-01-02T18:40:30.000Z,24.33
2019-01-02T18:50:30.000Z,24.53
2019-01-02T19:10:30.000Z,24.32
2019-01-02T19:20:30.000Z,24.3
2019-01-02T19:30:30.000Z,24.4
2019-01-02T19:40:30.000Z,24.44
2019-01-02T19:50:30.000Z,24.31
2019-01-02T20:00:32.000Z,24.22
2019-01-02T20:10:30.000Z,24.59
2019-01-02T20:20:30.000Z,24.68
2019-01-02T20:30:30.000Z,24.55
2019-01-02T20:40:30.000Z,24.57
2019-01-02T20:50:30.000Z,24.66
2019-01-02T21:00:30.000Z,24.47
2019-01-02T21:10:30.000Z,24.73
2019-01-02T21:20:34.000Z,24.71
2019-01-02T21:30:34.000Z,24.72
2019-01-02T21:40:30.000Z,24.45
2019-01-02T21:50:30.000Z,24.4
2019-01-02T22:00:30.000Z,24.39
2019-01-02T22:10:30.000Z,24.43
2019-01-02T22:20:30.000Z,24.4
2019-01-02T22:30:30.000Z,24.37
2019-01-02T22:40:30.000Z,24.45
2019-01-02T22:50:30.000Z,24.3
2019-01-02T23:00:30.000Z,24.3
2019-01-02T23:10:30.000Z,24.19
2019-01-02T23:20:30.000Z,24.2
2019-01-02T23:30:30.000Z,24.12
2019-01-02T23:40:30.000Z,24.1
2019-01-02T23:50:30.000Z,24.04
